Time;durP1;ratioP1;P1;durP2;ratioP2;P2;SDS_P1;SDS_P2;PMS_P1;PMS_P2;Temp;Humidity;BMP_temperature;BMP_pressure;BME280_temperature;BME280_humidity;BME280_pressure;Samples;Min_cycle;Max_cycle;Signal;HPM_P1;HPM_P2
2023/04/20 00:00:16;;;;;;;9.32;6.28;;;;;;;;;;2030342;29;20031;-89
2023/04/20 00:03:25;;;;;;;9.25;6.20;;;;;;;;;;2049360;28;20039;-89
2023/04/20 00:04:31;;;;;;;8.13;6.25;;;;;;;;;;2049358;28;20020;-89
2023/04/20 00:05:31;;;;;;;8.07;6.00;;;;;;;;;;2051998;28;20047;-89
2023/04/20 00:06:33;;;;;;;8.98;6.45;;;;;;;;;;2049311;28;20051;-89
2023/04/20 00:07:34;;;;;;;8.50;6.03;;;;;;;;;;2039065;29;20162;-89
2023/04/20 00:08:35;;;;;;;12.30;6.75;;;;;;;;;;2031270;29;20035;-88
2023/04/20 00:09:35;;;;;;;8.15;5.70;;;;;;;;;;2039543;29;20424;-88
2023/04/20 00:10:36;;;;;;;8.27;6.00;;;;;;;;;;2039073;29;20439;-88
2023/04/20 00:11:37;;;;;;;;;;;;;;;;;;2040078;29;20024;-89
2023/04/20 00:12:38;;;;;;;7.25;5.55;;;;;;;;;;2041787;29;19922;-87
2023/04/20 00:13:38;;;;;;;10.40;5.88;;;;;;;;;;2044683;29;20035;-88
2023/04/20 00:14:39;;;;;;;9.35;5.82;;;;;;;;;;2039303;29;20040;-88
2023/04/20 00:15:41;;;;;;;8.63;6.00;;;;;;;;;;2039208;29;20031;-88
2023/04/20 00:16:42;;;;;;;7.90;5.68;;;;;;;;;;2039050;29;20038;-88
2023/04/20 00:17:43;;;;;;;7.00;5.70;;;;;;;;;;2038755;29;20133;-88
2023/04/20 00:18:45;;;;;;;8.20;6.03;;;;;;;;;;2038772;29;20035;-88
2023/04/20 00:19:46;;;;;;;8.55;5.65;;;;;;;;;;2029988;29;20039;-90
2023/04/20 00:20:46;;;;;;;9.18;5.65;;;;;;;;;;2030223;29;20036;-89
2023/04/20 00:21:47;;;;;;;7.63;5.40;;;;;;;;;;2030356;29;20024;-90
2023/04/20 00:22:48;;;;;;;9.32;6.13;;;;;;;;;;2038687;29;20031;-90
2023/04/20 00:23:51;;;;;;;9.30;6.15;;;;;;;;;;2039062;29;20082;-90
2023/04/20 00:24:54;;;;;;;7.68;5.70;;;;;;;;;;2030522;29;20330;-89
2023/04/20 00:25:54;;;;;;;8.88;5.80;;;;;;;;;;2024676;29;20051;-88
2023/04/20 00:26:55;;;;;;;8.55;5.85;;;;;;;;;;2030244;29;20032;-87
2023/04/20 00:27:55;;;;;;;;;;;;;;;;;;2030607;29;20088;-90
2023/04/20 00:28:56;;;;;;;8.70;6.03;;;;;;;;;;2037873;29;19967;-89
2023/04/20 00:29:56;;;;;;;8.38;6.45;;;;;;;;;;2038232;29;20055;-89
2023/04/20 00:30:57;;;;;;;;;;;;;;;;;;2030678;29;20047;-89
2023/04/20 00:31:57;;;;;;;11.87;6.23;;;;;;;;;;2030284;29;19987;-90
2023/04/20 00:32:57;;;;;;;7.97;6.00;;;;;;;;;;2038786;29;20427;-90
2023/04/20 00:33:58;;;;;;;;;;;;;;;;;;2030710;29;20059;-89
2023/04/20 00:34:58;;;;;;;7.50;5.63;;;;;;;;;;2030187;29;20386;-89
2023/04/20 00:35:59;;;;;;;9.43;6.60;;;;;;;;;;2039658;29;20047;-88
2023/04/20 00:37:00;;;;;;;8.13;6.40;;;;;;;;;;2031235;29;20415;-89
2023/04/20 00:38:00;;;;;;;10.18;5.80;;;;;;;;;;2031267;29;20449;-90
2023/04/20 00:39:01;;;;;;;;;;;;;;;;;;2030618;29;20036;-90
2023/04/20 00:40:01;;;;;;;6.20;5.40;;;;;;;;;;2022593;29;19959;-90
2023/04/20 00:41:02;;;;;;;9.23;5.82;;;;;;;;;;2022417;29;20099;-89
2023/04/20 00:42:06;;;;;;;10.05;6.28;;;;;;;;;;2030104;29;20122;-90
2023/04/20 00:43:11;;;;;;;10.43;6.15;;;;;;;;;;2038710;29;20039;-91
2023/04/20 00:44:12;;;;;;;9.27;5.97;;;;;;;;;;2038919;29;20039;-90
2023/04/20 00:45:15;;;;;;;7.63;5.57;;;;;;;;;;2030521;29;20504;-90
2023/04/20 00:46:16;;;;;;;10.05;5.82;;;;;;;;;;2030923;29;20483;-90
2023/04/20 00:47:16;;;;;;;9.15;6.40;;;;;;;;;;2038896;29;20357;-92
2023/04/20 00:48:17;;;;;;;10.40;6.25;;;;;;;;;;2038243;29;20031;-90
2023/04/20 00:49:17;;;;;;;10.20;6.32;;;;;;;;;;2037993;29;20075;-91
2023/04/20 00:50:18;;;;;;;8.80;6.07;;;;;;;;;;2038704;29;20024;-89
2023/04/20 00:51:21;;;;;;;;;;;;;;;;;;2030796;29;20031;-88
2023/04/20 00:52:22;;;;;;;9.77;6.30;;;;;;;;;;2023009;29;19915;-90
2023/04/20 00:53:22;;;;;;;8.80;6.57;;;;;;;;;;2030171;29;20461;-89
2023/04/20 00:54:23;;;;;;;;;;;;;;;;;;2030635;29;20040;-89
2023/04/20 00:55:24;;;;;;;11.33;6.53;;;;;;;;;;2030331;29;20413;-90
2023/04/20 00:56:24;;;;;;;10.02;6.93;;;;;;;;;;2030453;29;20071;-89
2023/04/20 00:57:25;;;;;;;10.88;7.45;;;;;;;;;;2038297;29;20618;-89
2023/04/20 00:58:26;;;;;;;10.52;7.57;;;;;;;;;;2037613;29;20034;-89
2023/04/20 00:59:27;;;;;;;13.18;7.93;;;;;;;;;;2038237;29;20086;-90
2023/04/20 01:00:28;;;;;;;10.80;6.80;;;;;;;;;;2038707;29;20023;-89
2023/04/20 01:01:28;;;;;;;;;;;;;;;;;;2039409;29;20467;-89
2023/04/20 01:02:28;;;;;;;14.83;7.70;;;;;;;;;;2037939;29;20430;-89
2023/04/20 01:03:29;;;;;;;12.10;8.18;;;;;;;;;;2037806;29;20372;-89
2023/04/20 01:04:30;;;;;;;13.30;9.18;;;;;;;;;;2031164;29;20423;-89
2023/04/20 01:05:31;;;;;;;12.90;8.02;;;;;;;;;;2034569;29;20542;-87
2023/04/20 01:06:31;;;;;;;10.55;7.03;;;;;;;;;;2035920;29;20080;-89
2023/04/20 01:07:32;;;;;;;12.45;8.25;;;;;;;;;;2030308;29;20484;-89
2023/04/20 01:08:32;;;;;;;16.77;9.60;;;;;;;;;;2038846;29;20558;-89
2023/04/20 01:09:32;;;;;;;;;;;;;;;;;;2039280;29;20111;-89
2023/04/20 01:10:33;;;;;;;12.70;8.53;;;;;;;;;;2038994;29;19911;-90
2023/04/20 01:11:33;;;;;;;13.68;8.70;;;;;;;;;;2038912;29;20460;-90
2023/04/20 01:12:34;;;;;;;15.93;8.93;;;;;;;;;;2038896;29;20110;-89
2023/04/20 01:13:34;;;;;;;12.93;7.75;;;;;;;;;;2030189;29;20468;-89
2023/04/20 01:14:35;;;;;;;;;;;;;;;;;;2030759;29;20381;-89
2023/04/20 01:15:36;;;;;;;12.63;7.77;;;;;;;;;;2030038;29;19959;-90
2023/04/20 01:16:36;;;;;;;12.48;8.35;;;;;;;;;;2030714;29;20063;-90
2023/04/20 01:17:38;;;;;;;11.75;8.23;;;;;;;;;;2039189;29;20411;-91
2023/04/20 01:18:47;;;;;;;14.02;8.68;;;;;;;;;;2038291;29;20024;-90
2023/04/20 01:19:48;;;;;;;11.60;8.55;;;;;;;;;;2038258;29;20027;-90
2023/04/20 01:20:48;;;;;;;14.30;8.32;;;;;;;;;;2030563;29;20131;-89
2023/04/20 01:21:51;;;;;;;12.73;8.63;;;;;;;;;;2030759;29;20492;-90
2023/04/20 01:22:55;;;;;;;11.00;8.13;;;;;;;;;;2039609;29;20035;-90
2023/04/20 01:23:57;;;;;;;11.27;7.90;;;;;;;;;;2030551;29;20032;-90
2023/04/20 01:25:00;;;;;;;10.90;8.10;;;;;;;;;;2030862;29;20134;-91
2023/04/20 01:26:07;;;;;;;12.43;7.88;;;;;;;;;;2031093;29;20060;-90
2023/04/20 01:27:07;;;;;;;11.13;7.90;;;;;;;;;;2038742;29;20024;-90
2023/04/20 01:28:08;;;;;;;10.38;7.63;;;;;;;;;;2039334;29;20023;-91
2023/04/20 01:29:08;;;;;;;14.10;8.18;;;;;;;;;;2038681;29;20067;-91
2023/04/20 01:30:09;;;;;;;10.57;7.28;;;;;;;;;;2038559;29;20015;-91
2023/04/20 01:31:11;;;;;;;10.73;7.70;;;;;;;;;;2038335;29;20024;-92
2023/04/20 01:32:14;;;;;;;10.27;7.13;;;;;;;;;;2038858;29;20065;-90
2023/04/20 01:33:14;;;;;;;10.63;7.15;;;;;;;;;;2030989;29;20027;-91
2023/04/20 01:34:17;;;;;;;12.27;7.85;;;;;;;;;;2031005;29;20513;-92
2023/04/20 01:35:20;;;;;;;16.08;7.97;;;;;;;;;;2030956;29;20619;-91
2023/04/20 01:36:20;;;;;;;13.38;7.80;;;;;;;;;;2031173;29;20024;-91
2023/04/20 01:37:21;;;;;;;12.45;7.50;;;;;;;;;;2031288;29;20028;-92
2023/04/20 01:38:23;;;;;;;13.32;8.35;;;;;;;;;;2030943;29;20028;-91
2023/04/20 01:39:23;;;;;;;16.23;9.15;;;;;;;;;;2031633;29;20063;-91
2023/04/20 01:40:27;;;;;;;13.30;8.93;;;;;;;;;;2030854;29;20031;-91
2023/04/20 01:41:27;;;;;;;12.68;7.95;;;;;;;;;;2031127;29;20076;-91
2023/04/20 01:42:28;;;;;;;16.30;9.57;;;;;;;;;;2039358;29;20115;-91
2023/04/20 01:43:28;;;;;;;11.38;7.95;;;;;;;;;;2030734;29;20195;-90
2023/04/20 01:44:28;;;;;;;12.93;8.35;;;;;;;;;;2030370;29;20211;-89
2023/04/20 01:45:29;;;;;;;10.52;8.20;;;;;;;;;;2030575;29;20039;-90
2023/04/20 01:46:29;;;;;;;;;;;;;;;;;;2030909;29;20066;-90
2023/04/20 01:47:30;;;;;;;11.80;7.53;;;;;;;;;;2038380;29;20141;-90
2023/04/20 01:48:31;;;;;;;15.23;8.50;;;;;;;;;;2038274;29;20322;-91
2023/04/20 01:49:31;;;;;;;11.60;7.78;;;;;;;;;;2038075;29;20463;-90
2023/04/20 01:50:31;;;;;;;;;;;;;;;;;;2038792;29;20127;-90
2023/04/20 01:51:33;;;;;;;14.73;8.53;;;;;;;;;;2030174;29;19922;-90
2023/04/20 01:52:34;;;;;;;13.48;8.43;;;;;;;;;;2030357;29;20465;-90
2023/04/20 01:53:34;;;;;;;11.75;7.97;;;;;;;;;;2030068;29;20024;-90
2023/04/20 01:54:37;;;;;;;14.02;8.25;;;;;;;;;;2030138;29;20481;-90
2023/04/20 01:55:38;;;;;;;15.48;8.68;;;;;;;;;;2030464;29;20032;-90
2023/04/20 01:56:38;;;;;;;10.68;8.15;;;;;;;;;;2039038;29;20028;-91
2023/04/20 01:57:39;;;;;;;;;;;;;;;;;;2035123;29;20035;-90
2023/04/20 01:58:39;;;;;;;12.30;8.43;;;;;;;;;;2038299;29;19911;-88
2023/04/20 01:59:40;;;;;;;13.43;8.57;;;;;;;;;;2030995;29;20039;-90
2023/04/20 02:00:40;;;;;;;11.70;7.63;;;;;;;;;;2030327;29;20028;-90
2023/04/20 02:01:41;;;;;;;13.30;8.70;;;;;;;;;;2023493;29;20097;-90
2023/04/20 02:02:41;;;;;;;12.55;8.70;;;;;;;;;;2031715;29;20042;-90
2023/04/20 02:03:41;;;;;;;;;;;;;;;;;;2031634;29;20039;-90
2023/04/20 02:04:42;;;;;;;12.47;8.27;;;;;;;;;;2031846;29;19911;-90
2023/04/20 02:05:42;;;;;;;15.25;8.02;;;;;;;;;;2039046;29;20338;-90
2023/04/20 02:06:42;;;;;;;;;;;;;;;;;;2039692;29;20519;-90
2023/04/20 02:07:43;;;;;;;13.67;9.70;;;;;;;;;;2031202;29;19976;-90
2023/04/20 02:08:43;;;;;;;;;;;;;;;;;;2032238;29;20031;-90
2023/04/20 02:09:46;;;;;;;14.37;9.30;;;;;;;;;;2031662;29;20356;-90
2023/04/20 02:10:47;;;;;;;16.45;10.38;;;;;;;;;;2031472;29;20060;-90
2023/04/20 02:11:47;;;;;;;15.32;10.13;;;;;;;;;;2031455;29;20609;-90
2023/04/20 02:12:48;;;;;;;;;;;;;;;;;;2032378;29;20024;-90
2023/04/20 02:13:52;;;;;;;15.40;9.07;;;;;;;;;;2041437;29;19997;-91
2023/04/20 02:14:53;;;;;;;16.38;9.55;;;;;;;;;;2049359;29;20092;-92
2023/04/20 02:15:53;;;;;;;;;;;;;;;;;;2041629;29;20064;-91
2023/04/20 02:16:53;;;;;;;12.87;7.87;;;;;;;;;;2041553;29;19909;-90
2023/04/20 02:17:54;;;;;;;;;;;;;;;;;;2050625;29;20042;-90
2023/04/20 02:18:55;;;;;;;14.87;9.10;;;;;;;;;;2049237;29;19989;-90
2023/04/20 02:19:55;;;;;;;13.32;8.63;;;;;;;;;;2035119;29;20034;-90
2023/04/20 02:20:57;;;;;;;11.68;8.38;;;;;;;;;;2031801;29;20745;-90
2023/04/20 02:21:58;;;;;;;10.05;7.63;;;;;;;;;;2039766;29;20506;-89
2023/04/20 02:22:58;;;;;;;;;;;;;;;;;;2032073;29;20109;-90
2023/04/20 02:24:02;;;;;;;10.67;7.70;;;;;;;;;;2031365;29;19911;-89
2023/04/20 02:25:04;;;;;;;10.10;6.72;;;;;;;;;;2040035;29;20106;-90
2023/04/20 02:26:05;;;;;;;8.85;6.72;;;;;;;;;;2039153;29;20031;-90
2023/04/20 02:27:05;;;;;;;10.55;6.63;;;;;;;;;;2031504;29;20111;-90
2023/04/20 02:28:06;;;;;;;;;;;;;;;;;;2032172;29;20271;-90
2023/04/20 02:29:06;;;;;;;6.67;5.20;;;;;;;;;;2040939;29;19934;-89
2023/04/20 02:30:07;;;;;;;;;;;;;;;;;;2033618;29;20658;-90
2023/04/20 02:31:07;;;;;;;7.20;5.53;;;;;;;;;;2033009;29;19946;-89
2023/04/20 02:32:08;;;;;;;8.07;6.20;;;;;;;;;;2040213;29;20039;-90
2023/04/20 02:33:08;;;;;;;7.88;5.82;;;;;;;;;;2038388;29;20020;-90
2023/04/20 02:34:09;;;;;;;8.25;5.40;;;;;;;;;;2041563;29;20103;-90
2023/04/20 02:35:12;;;;;;;7.50;5.25;;;;;;;;;;2041902;29;20013;-90
2023/04/20 02:36:13;;;;;;;6.82;4.82;;;;;;;;;;2041701;29;20012;-90
2023/04/20 02:37:14;;;;;;;;;;;;;;;;;;2041289;29;20023;-91
2023/04/20 02:38:14;;;;;;;7.88;5.63;;;;;;;;;;2040099;29;19907;-90
2023/04/20 02:39:15;;;;;;;8.25;6.10;;;;;;;;;;2049113;29;20011;-90
2023/04/20 02:40:15;;;;;;;8.35;6.00;;;;;;;;;;2045670;29;20020;-89
2023/04/20 02:41:16;;;;;;;7.55;6.30;;;;;;;;;;2031555;29;20479;-89
2023/04/20 02:42:16;;;;;;;10.38;5.70;;;;;;;;;;2031291;29;20160;-90
2023/04/20 02:43:16;;;;;;;;;;;;;;;;;;2031586;29;20409;-89
2023/04/20 02:44:17;;;;;;;9.63;5.90;;;;;;;;;;2031634;29;19911;-89
2023/04/20 02:45:17;;;;;;;8.07;6.03;;;;;;;;;;2039539;29;20183;-88
2023/04/20 02:46:18;;;;;;;8.82;6.03;;;;;;;;;;2039710;29;20037;-89
2023/04/20 02:47:18;;;;;;;;;;;;;;;;;;2031581;29;20504;-88
2023/04/20 02:48:18;;;;;;;8.97;6.07;;;;;;;;;;2031146;29;19911;-89
2023/04/20 02:49:19;;;;;;;12.00;6.18;;;;;;;;;;2039742;29;20028;-88
2023/04/20 02:50:19;;;;;;;;;;;;;;;;;;2040761;29;20111;-87
2023/04/20 02:51:20;;;;;;;7.93;6.07;;;;;;;;;;2044255;29;19921;-88
2023/04/20 02:52:21;;;;;;;8.68;6.18;;;;;;;;;;2039016;29;20023;-88
2023/04/20 02:53:21;;;;;;;;;;;;;;;;;;2040374;29;20486;-89
2023/04/20 02:54:21;;;;;;;12.50;6.27;;;;;;;;;;2039348;29;20365;-89
2023/04/20 02:55:22;;;;;;;;;;;;;;;;;;2032057;29;20123;-89
2023/04/20 02:56:22;;;;;;;9.57;6.18;;;;;;;;;;1686820;29;10166042;-89
2023/04/20 02:57:24;;;;;;;9.10;6.70;;;;;;;;;;2039807;29;20298;-89
2023/04/20 02:58:24;;;;;;;9.32;7.13;;;;;;;;;;2031077;29;20063;-89
2023/04/20 02:59:25;;;;;;;10.90;7.00;;;;;;;;;;2031216;29;20412;-88
2023/04/20 03:00:26;;;;;;;9.73;7.15;;;;;;;;;;2030712;29;20024;-88
2023/04/20 03:01:26;;;;;;;10.88;6.65;;;;;;;;;;2039150;29;20127;-88
2023/04/20 03:02:26;;;;;;;;;;;;;;;;;;2031745;29;20023;-88
2023/04/20 03:03:28;;;;;;;10.70;7.90;;;;;;;;;;2031431;29;19918;-88
2023/04/20 03:04:31;;;;;;;10.77;7.50;;;;;;;;;;2039764;29;20042;-89
2023/04/20 03:05:32;;;;;;;13.63;8.07;;;;;;;;;;2031284;29;20099;-89
2023/04/20 03:06:32;;;;;;;13.18;8.10;;;;;;;;;;2031739;29;20059;-89
2023/04/20 03:07:33;;;;;;;;;;;;;;;;;;2039674;29;20023;-89
2023/04/20 03:08:33;;;;;;;8.80;7.37;;;;;;;;;;2039559;29;19917;-89
2023/04/20 03:09:35;;;;;;;10.68;7.25;;;;;;;;;;2031343;29;20487;-88
2023/04/20 03:10:35;;;;;;;11.20;7.03;;;;;;;;;;2031700;29;20152;-88
2023/04/20 03:11:35;;;;;;;12.05;8.10;;;;;;;;;;2039784;29;20135;-89
2023/04/20 03:12:36;;;;;;;10.45;7.32;;;;;;;;;;2040027;29;20028;-88
2023/04/20 03:13:36;;;;;;;;;;;;;;;;;;2031248;29;20095;-88
2023/04/20 03:14:36;;;;;;;8.00;6.50;;;;;;;;;;2036970;29;20347;-90
2023/04/20 03:15:37;;;;;;;9.23;6.30;;;;;;;;;;2047280;29;20095;-89
2023/04/20 03:16:38;;;;;;;12.02;6.72;;;;;;;;;;2047170;29;20063;-90
2023/04/20 03:17:39;;;;;;;;;;;;;;;;;;2040525;29;20031;-89
2023/04/20 03:18:40;;;;;;;7.70;6.10;;;;;;;;;;2039882;29;19917;-90
2023/04/20 03:19:40;;;;;;;7.90;5.82;;;;;;;;;;2040008;29;20110;-90
2023/04/20 03:20:40;;;;;;;7.78;6.00;;;;;;;;;;2040112;29;20111;-89
2023/04/20 03:21:41;;;;;;;6.63;5.70;;;;;;;;;;2031506;29;20034;-90
2023/04/20 03:22:42;;;;;;;7.15;5.57;;;;;;;;;;2031553;29;20059;-90
2023/04/20 03:23:42;;;;;;;8.02;5.65;;;;;;;;;;2039988;29;20114;-90
2023/04/20 03:24:51;;;;;;;9.98;5.28;;;;;;;;;;2042655;29;20074;-92
2023/04/20 03:25:52;;;;;;;8.02;5.88;;;;;;;;;;2039827;29;20523;-88
2023/04/20 03:26:53;;;;;;;7.50;6.05;;;;;;;;;;2039795;29;20024;-89
2023/04/20 03:27:53;;;;;;;7.03;5.97;;;;;;;;;;2039872;29;20439;-88
2023/04/20 03:28:54;;;;;;;8.77;5.70;;;;;;;;;;2040149;29;20034;-89
2023/04/20 03:29:54;;;;;;;7.75;5.85;;;;;;;;;;2031270;29;20101;-91
2023/04/20 03:30:55;;;;;;;6.57;5.10;;;;;;;;;;2031485;29;20529;-89
2023/04/20 03:31:55;;;;;;;7.53;5.50;;;;;;;;;;2031434;29;20127;-90
2023/04/20 03:32:55;;;;;;;;;;;;;;;;;;2031869;29;20381;-91
2023/04/20 03:33:56;;;;;;;11.30;6.33;;;;;;;;;;2039192;29;19942;-89
2023/04/20 03:34:56;;;;;;;;;;;;;;;;;;2031898;29;20032;-89
2023/04/20 03:35:58;;;;;;;9.63;5.50;;;;;;;;;;2023546;29;19915;-90
2023/04/20 03:36:58;;;;;;;8.32;5.75;;;;;;;;;;2031319;29;20508;-90
2023/04/20 03:38:00;;;;;;;9.73;6.57;;;;;;;;;;2031100;29;20047;-90
2023/04/20 03:39:00;;;;;;;9.57;6.82;;;;;;;;;;2031169;29;20439;-90
2023/04/20 03:40:00;;;;;;;7.55;6.47;;;;;;;;;;2038237;29;20133;-90
2023/04/20 03:41:01;;;;;;;10.55;6.25;;;;;;;;;;2038932;29;20240;-91
2023/04/20 03:42:04;;;;;;;7.65;5.80;;;;;;;;;;2039767;29;20070;-90
2023/04/20 03:43:04;;;;;;;8.27;5.75;;;;;;;;;;2044038;28;20055;-89
2023/04/20 03:44:08;;;;;;;10.35;6.75;;;;;;;;;;2037514;29;20032;-90
2023/04/20 03:45:10;;;;;;;9.50;6.75;;;;;;;;;;2031053;29;20031;-90
2023/04/20 03:46:10;;;;;;;9.85;6.88;;;;;;;;;;2031631;29;20131;-88
2023/04/20 03:47:13;;;;;;;7.28;5.63;;;;;;;;;;2039970;29;20053;-89
2023/04/20 03:48:13;;;;;;;7.50;5.70;;;;;;;;;;2039167;29;20164;-89
2023/04/20 03:49:14;;;;;;;8.23;6.53;;;;;;;;;;2031192;29;20082;-89
2023/04/20 03:50:15;;;;;;;;;;;;;;;;;;2031552;29;20527;-89
2023/04/20 03:51:15;;;;;;;9.30;6.20;;;;;;;;;;2038734;29;19958;-89
2023/04/20 03:52:16;;;;;;;7.88;6.38;;;;;;;;;;2039066;29;20467;-89
2023/04/20 03:53:16;;;;;;;8.43;6.53;;;;;;;;;;2039304;29;20491;-88
2023/04/20 03:54:16;;;;;;;9.32;6.45;;;;;;;;;;2030527;29;20523;-90
2023/04/20 03:55:17;;;;;;;10.18;7.30;;;;;;;;;;2030851;29;20181;-89
2023/04/20 03:56:17;;;;;;;10.07;7.10;;;;;;;;;;2038986;29;20440;-89
2023/04/20 03:57:18;;;;;;;10.00;7.43;;;;;;;;;;2039200;29;20029;-88
2023/04/20 03:58:19;;;;;;;12.50;7.72;;;;;;;;;;2039295;29;20090;-89
2023/04/20 03:59:20;;;;;;;11.48;7.65;;;;;;;;;;2039467;29;20054;-88
2023/04/20 04:00:21;;;;;;;11.40;6.70;;;;;;;;;;2038786;29;20415;-90
2023/04/20 04:01:21;;;;;;;12.48;7.70;;;;;;;;;;2030486;29;20580;-90
2023/04/20 04:02:22;;;;;;;11.25;7.45;;;;;;;;;;2030425;29;20349;-90
2023/04/20 04:03:23;;;;;;;12.85;8.05;;;;;;;;;;2030371;29;20080;-90
2023/04/20 04:04:24;;;;;;;28.83;18.20;;;;;;;;;;2030645;29;20100;-90
2023/04/20 04:05:25;;;;;;;22.90;13.98;;;;;;;;;;2030658;29;20062;-89
2023/04/20 04:06:26;;;;;;;17.23;11.88;;;;;;;;;;2030667;29;20115;-90
2023/04/20 04:07:26;;;;;;;11.30;8.85;;;;;;;;;;2030506;29;20032;-90
2023/04/20 04:08:26;;;;;;;;;;;;;;;;;;2031251;29;20062;-90
2023/04/20 04:09:27;;;;;;;9.60;7.67;;;;;;;;;;2038112;29;20386;-90
2023/04/20 04:10:27;;;;;;;12.77;8.55;;;;;;;;;;2038417;29;20031;-89
2023/04/20 04:11:31;;;;;;;14.32;9.45;;;;;;;;;;2038928;29;20059;-90
2023/04/20 04:12:31;;;;;;;11.57;8.45;;;;;;;;;;2039278;29;20027;-90
2023/04/20 04:13:32;;;;;;;12.20;8.60;;;;;;;;;;2030241;29;20067;-90
2023/04/20 04:14:32;;;;;;;;;;;;;;;;;;2031389;29;20028;-90
2023/04/20 04:15:33;;;;;;;11.20;8.43;;;;;;;;;;2038552;29;19953;-90
2023/04/20 04:16:34;;;;;;;20.55;15.13;;;;;;;;;;2038385;29;20039;-90
2023/04/20 04:17:34;;;;;;;16.52;12.20;;;;;;;;;;2038964;29;20028;-90
2023/04/20 04:18:35;;;;;;;;;;;;;;;;;;2039263;29;20027;-87
2023/04/20 04:19:35;;;;;;;15.83;11.20;;;;;;;;;;2038766;29;19918;-90
2023/04/20 04:20:35;;;;;;;13.55;8.45;;;;;;;;;;2032318;29;119123;-90
2023/04/20 04:21:36;;;;;;;12.70;8.45;;;;;;;;;;2044786;29;20254;-89
2023/04/20 04:22:36;;;;;;;10.95;7.45;;;;;;;;;;2047222;29;20359;-89
2023/04/20 04:23:37;;;;;;;11.63;7.28;;;;;;;;;;2039045;29;20083;-89
2023/04/20 04:24:37;;;;;;;12.82;8.32;;;;;;;;;;2038527;29;20039;-90
2023/04/20 04:25:39;;;;;;;10.65;8.23;;;;;;;;;;2038799;29;20035;-90
2023/04/20 04:26:39;;;;;;;13.75;9.43;;;;;;;;;;2038585;29;20059;-91
2023/04/20 04:27:40;;;;;;;11.98;8.48;;;;;;;;;;2038210;29;20079;-91
2023/04/20 04:28:40;;;;;;;12.18;8.65;;;;;;;;;;2039073;29;20045;-90
2023/04/20 04:29:41;;;;;;;26.17;11.52;;;;;;;;;;2038999;29;20078;-90
2023/04/20 04:30:53;;;;;;;33.53;14.38;;;;;;;;;;1758323;29;10001420;-89
2023/04/20 04:31:59;;;;;;;36.42;15.82;;;;;;;;;;1363571;29;10001071;-89
2023/04/20 04:32:59;;;;;;;31.58;12.48;;;;;;;;;;2045771;29;20035;-93
2023/04/20 04:34:00;;;;;;;29.13;13.68;;;;;;;;;;2039175;29;20471;-91
2023/04/20 04:35:12;;;;;;;25.27;10.83;;;;;;;;;;1987320;29;10490007;-88
2023/04/20 04:36:14;;;;;;;25.15;11.75;;;;;;;;;;2036683;29;20312;-89
2023/04/20 04:37:14;;;;;;;23.38;11.57;;;;;;;;;;2039025;29;20054;-89
2023/04/20 04:38:15;;;;;;;18.13;10.98;;;;;;;;;;2039121;29;20030;-90
2023/04/20 04:39:15;;;;;;;16.42;9.48;;;;;;;;;;2038221;29;20027;-90
2023/04/20 04:40:17;;;;;;;15.68;9.52;;;;;;;;;;2038650;29;20099;-89
2023/04/20 04:41:17;;;;;;;17.17;9.85;;;;;;;;;;2038462;29;20027;-89
2023/04/20 04:42:18;;;;;;;14.55;8.65;;;;;;;;;;2038768;29;20054;-92
2023/04/20 04:43:19;;;;;;;;;;;;;;;;;;2039904;29;20479;-90
2023/04/20 04:44:20;;;;;;;12.53;7.90;;;;;;;;;;2044350;29;20226;-90
2023/04/20 04:45:24;;;;;;;17.90;9.80;;;;;;;;;;2046913;29;20087;-89
2023/04/20 04:46:24;;;;;;;14.32;8.15;;;;;;;;;;2047561;29;20042;-90
2023/04/20 04:47:24;;;;;;;12.48;7.63;;;;;;;;;;2047209;28;20055;-88
2023/04/20 04:48:25;;;;;;;14.60;7.38;;;;;;;;;;2045854;29;20024;-90
2023/04/20 04:49:25;;;;;;;9.77;7.05;;;;;;;;;;2042110;29;20028;-90
2023/04/20 04:50:26;;;;;;;11.55;7.07;;;;;;;;;;2031534;29;20028;-89
2023/04/20 04:51:26;;;;;;;12.13;7.80;;;;;;;;;;2042797;29;20127;-89
2023/04/20 04:52:27;;;;;;;12.57;7.32;;;;;;;;;;2032822;29;20077;-89
2023/04/20 04:53:28;;;;;;;13.38;7.65;;;;;;;;;;2038793;29;20047;-90
2023/04/20 04:54:28;;;;;;;13.43;6.80;;;;;;;;;;2038594;29;20479;-90
2023/04/20 04:55:29;;;;;;;12.02;7.03;;;;;;;;;;2030983;29;20096;-90
2023/04/20 04:56:29;;;;;;;14.80;8.15;;;;;;;;;;2030995;29;20032;-90
2023/04/20 04:57:30;;;;;;;10.07;7.43;;;;;;;;;;2039219;29;20035;-90
2023/04/20 04:58:30;;;;;;;9.38;7.10;;;;;;;;;;2039594;29;20125;-91
2023/04/20 04:59:31;;;;;;;15.95;6.97;;;;;;;;;;2039801;29;20456;-90
2023/04/20 05:00:31;;;;;;;11.13;7.03;;;;;;;;;;2039850;29;20043;-90
2023/04/20 05:01:33;;;;;;;10.45;6.75;;;;;;;;;;2039889;29;20134;-89
2023/04/20 05:02:33;;;;;;;11.65;7.65;;;;;;;;;;2039109;29;20039;-89
2023/04/20 05:03:34;;;;;;;11.02;7.20;;;;;;;;;;2043002;29;20091;-89
2023/04/20 05:04:34;;;;;;;13.75;7.05;;;;;;;;;;2049460;29;20102;-89
2023/04/20 05:05:35;;;;;;;10.52;7.43;;;;;;;;;;2049549;29;20031;-90
2023/04/20 05:06:35;;;;;;;11.07;8.30;;;;;;;;;;2057126;28;20553;-89
2023/04/20 05:07:37;;;;;;;9.57;6.88;;;;;;;;;;2047686;29;20032;-89
2023/04/20 05:08:37;;;;;;;11.18;7.47;;;;;;;;;;2043287;29;20063;-90
2023/04/20 05:09:37;;;;;;;8.23;7.03;;;;;;;;;;2048121;29;20098;-90
2023/04/20 05:10:40;;;;;;;11.05;7.13;;;;;;;;;;2040018;29;20419;-89
2023/04/20 05:11:42;;;;;;;11.43;7.72;;;;;;;;;;2038999;29;20436;-89
2023/04/20 05:12:43;;;;;;;8.82;7.13;;;;;;;;;;2039831;29;20411;-90
2023/04/20 05:13:43;;;;;;;10.23;7.30;;;;;;;;;;2047295;29;20028;-89
2023/04/20 05:14:44;;;;;;;11.32;7.13;;;;;;;;;;2039660;29;20086;-89
2023/04/20 05:15:44;;;;;;;12.60;9.23;;;;;;;;;;2040536;29;20040;-88
2023/04/20 05:16:45;;;;;;;11.18;8.50;;;;;;;;;;2039264;29;20371;-89
2023/04/20 05:17:48;;;;;;;13.90;8.75;;;;;;;;;;2048305;29;20383;-89
2023/04/20 05:18:48;;;;;;;16.05;9.13;;;;;;;;;;2039825;29;20063;-90
2023/04/20 05:19:49;;;;;;;13.00;8.25;;;;;;;;;;2041298;29;20395;-88
2023/04/20 05:20:51;;;;;;;13.23;7.70;;;;;;;;;;2031174;29;20036;-89
2023/04/20 05:21:52;;;;;;;12.73;6.90;;;;;;;;;;2030765;29;20028;-89
2023/04/20 05:22:53;;;;;;;12.63;7.95;;;;;;;;;;2038432;29;20032;-89
2023/04/20 05:23:53;;;;;;;11.50;8.90;;;;;;;;;;2046309;29;20511;-89
2023/04/20 05:24:54;;;;;;;8.30;6.60;;;;;;;;;;2046553;29;20082;-89
2023/04/20 05:25:54;;;;;;;8.27;6.60;;;;;;;;;;2038692;29;20069;-89
2023/04/20 05:26:55;;;;;;;8.50;6.93;;;;;;;;;;2040612;29;20027;-90
2023/04/20 05:27:55;;;;;;;7.70;6.50;;;;;;;;;;2044960;29;20095;-86
2023/04/20 05:28:56;;;;;;;10.27;6.95;;;;;;;;;;2040059;29;20039;-90
2023/04/20 05:29:56;;;;;;;8.25;6.57;;;;;;;;;;2038533;29;20157;-90
2023/04/20 05:30:56;;;;;;;9.07;6.85;;;;;;;;;;2039066;29;20032;-91
2023/04/20 05:31:57;;;;;;;11.02;7.63;;;;;;;;;;2040086;29;20511;-89
2023/04/20 05:32:57;;;;;;;9.68;7.35;;;;;;;;;;2039299;29;20039;-90
2023/04/20 05:33:58;;;;;;;10.10;7.32;;;;;;;;;;2038878;29;20024;-90
2023/04/20 05:34:59;;;;;;;9.98;8.07;;;;;;;;;;2039807;29;20111;-90
2023/04/20 05:35:59;;;;;;;8.98;7.43;;;;;;;;;;2039879;29;20039;-89
2023/04/20 05:37:03;;;;;;;8.07;6.72;;;;;;;;;;2040477;29;20495;-90
2023/04/20 05:38:05;;;;;;;8.35;6.88;;;;;;;;;;2040376;29;20067;-89
2023/04/20 05:39:05;;;;;;;9.80;7.60;;;;;;;;;;2040419;29;20058;-90
2023/04/20 05:40:06;;;;;;;10.45;7.80;;;;;;;;;;2032703;29;20035;-90
2023/04/20 05:41:07;;;;;;;8.77;7.20;;;;;;;;;;2039986;29;20027;-90
2023/04/20 05:42:09;;;;;;;9.70;7.60;;;;;;;;;;2039984;29;20051;-89
2023/04/20 05:43:10;;;;;;;10.45;7.18;;;;;;;;;;2040769;29;20051;-90
2023/04/20 05:44:11;;;;;;;10.70;8.35;;;;;;;;;;2040956;29;20036;-89
2023/04/20 05:45:12;;;;;;;8.23;6.90;;;;;;;;;;2041797;29;20031;-89
2023/04/20 05:46:14;;;;;;;11.70;7.53;;;;;;;;;;2040816;29;20115;-90
2023/04/20 05:47:15;;;;;;;8.23;6.60;;;;;;;;;;2032105;29;20051;-90
2023/04/20 05:48:15;;;;;;;10.07;6.97;;;;;;;;;;2040573;29;20114;-89
2023/04/20 05:49:19;;;;;;;9.93;6.57;;;;;;;;;;2040911;29;20490;-89
2023/04/20 05:50:19;;;;;;;10.77;6.60;;;;;;;;;;2040854;29;20111;-89
2023/04/20 05:51:21;;;;;;;7.85;6.07;;;;;;;;;;2041159;29;20023;-89
2023/04/20 05:52:21;;;;;;;10.68;7.18;;;;;;;;;;2040953;29;20035;-90
2023/04/20 05:53:22;;;;;;;10.10;7.13;;;;;;;;;;2040080;29;20028;-91
2023/04/20 05:54:55;;;;;;;;;;;;;;;;;;;;;
2023/04/20 05:56:19;;;;;;;10.13;6.82;;;;;;;;;;2039814;29;20083;-89
2023/04/20 05:57:39;;;;;;;10.10;7.18;;;;;;;;;;2022434;29;20499;-89
2023/04/20 05:58:47;;;;;;;11.35;7.05;;;;;;;;;;2039620;29;20118;-89
2023/04/20 05:59:56;;;;;;;11.95;7.65;;;;;;;;;;2039424;29;20040;-90
2023/04/20 06:00:56;;;;;;;8.90;7.07;;;;;;;;;;2038814;29;20042;-90
2023/04/20 06:01:57;;;;;;;10.15;7.32;;;;;;;;;;2031694;29;20115;-91
2023/04/20 06:02:57;;;;;;;10.95;6.60;;;;;;;;;;2032061;29;20032;-90
2023/04/20 06:03:58;;;;;;;9.23;6.20;;;;;;;;;;2040170;29;20104;-92
2023/04/20 06:04:59;;;;;;;9.63;6.35;;;;;;;;;;2039317;29;20048;-89
2023/04/20 06:06:00;;;;;;;13.43;6.82;;;;;;;;;;2039475;29;20032;-89
2023/04/20 06:07:00;;;;;;;6.68;5.95;;;;;;;;;;2040010;29;20640;-90
2023/04/20 06:08:01;;;;;;;9.50;6.25;;;;;;;;;;2039811;29;20047;-90
2023/04/20 06:09:01;;;;;;;6.80;5.75;;;;;;;;;;2039264;29;20337;-90
2023/04/20 06:10:03;;;;;;;7.25;6.25;;;;;;;;;;2039383;29;20078;-90
2023/04/20 06:11:07;;;;;;;10.80;6.00;;;;;;;;;;2040446;29;20142;-90